Bay Terrace, New York
Current Conditions -  °F | °C
As of 9:51 AM on Saturday 25 Oct 2014 (Local Time) from KLGA Reporting Station
Few Clouds Few Clouds  
Wind Chill: 55°   Ceiling: Unl
Heat Index: 55°   Visibility: 10mi
Dew Point: 39°   Wind: 10mph
Humidity: 55%   Direction: 290°WNW
Pressure: 29.85"   Gusts: NA
Location:  40.7825°N, 73.7809°W
Report Text: KLGA 251351Z 29009KT 10SM FEW250 13/04 A2985 RMK AO2 SLP106 T01280039
Loading
Personal Weather Stations






























Interactive Weather Map New forecast layout! Learn more

10-Day Weather Forecast

Advertisements
Track Severe Weather on mobile